Time;durP1;ratioP1;P1;durP2;ratioP2;P2;SDS_P1;SDS_P2;PMS_P1;PMS_P2;Temp;Humidity;BMP_temperature;BMP_pressure;BME280_temperature;BME280_humidity;BME280_pressure;Samples;Min_cycle;Max_cycle;Signal;HPM_P1;HPM_P2
2023/08/24 00:00:18;;;;;;;6.95;4.57;;;22.00;99.90;;;;;;5069723;28;20766;-58
2023/08/24 00:02:44;;;;;;;4.22;3.83;;;21.80;99.90;;;;;;5069726;28;20221;-58
2023/08/24 00:05:11;;;;;;;7.78;4.15;;;21.80;99.90;;;;;;5073450;28;20201;-57
2023/08/24 00:07:38;;;;;;;5.50;3.80;;;21.70;99.90;;;;;;5073029;28;20303;-58
2023/08/24 00:10:05;;;;;;;7.68;3.55;;;21.60;99.90;;;;;;5073272;28;20200;-58
2023/08/24 00:12:33;;;;;;;3.85;3.45;;;21.50;99.90;;;;;;5073284;28;20201;-58
2023/08/24 00:15:00;;;;;;;5.20;3.45;;;21.40;99.90;;;;;;5073231;28;20205;-59
2023/08/24 00:17:28;;;;;;;5.85;3.45;;;21.40;99.90;;;;;;5072705;28;20252;-58
2023/08/24 00:19:55;;;;;;;5.43;3.60;;;21.40;99.90;;;;;;5073065;28;20212;-60
2023/08/24 00:22:21;;;;;;;4.90;3.47;;;21.30;99.90;;;;;;5073076;28;20745;-59
2023/08/24 00:24:48;;;;;;;4.63;3.55;;;21.20;99.90;;;;;;5073065;28;20228;-58
2023/08/24 00:27:15;;;;;;;7.95;3.28;;;21.10;99.90;;;;;;5072565;28;20817;-59
2023/08/24 00:29:41;;;;;;;4.53;3.35;;;21.00;99.90;;;;;;5072906;28;20665;-59
2023/08/24 00:32:08;;;;;;;4.53;3.85;;;20.90;99.90;;;;;;5072819;28;20626;-59
2023/08/24 00:34:36;;;;;;;4.50;3.55;;;20.80;99.90;;;;;;5073101;28;20213;-58
2023/08/24 00:37:03;;;;;;;3.88;3.45;;;20.80;99.90;;;;;;5072493;28;20231;-58
2023/08/24 00:39:30;;;;;;;7.53;3.55;;;20.60;99.90;;;;;;5072805;28;20695;-58
2023/08/24 00:41:56;;;;;;;5.57;3.53;;;20.60;99.90;;;;;;5072784;28;20235;-58
2023/08/24 00:44:23;;;;;;;4.70;3.70;;;20.50;99.90;;;;;;5072740;28;20216;-58
2023/08/24 00:46:50;;;;;;;6.53;3.60;;;20.50;99.90;;;;;;5036453;28;1045412;-58
2023/08/24 00:49:17;;;;;;;7.30;3.92;;;20.50;99.90;;;;;;5073964;28;20217;-58
2023/08/24 00:51:45;;;;;;;5.97;4.05;;;20.40;99.90;;;;;;5073846;28;20201;-60
2023/08/24 00:54:12;;;;;;;6.10;3.83;;;20.30;99.90;;;;;;5073819;28;20205;-58
2023/08/24 00:56:39;;;;;;;7.18;4.18;;;20.20;99.90;;;;;;5073323;28;20232;-57
2023/08/24 00:59:05;;;;;;;8.55;3.70;;;20.30;99.90;;;;;;5073328;28;20208;-58
2023/08/24 01:01:32;;;;;;;4.57;3.55;;;20.30;99.90;;;;;;5073367;28;20201;-56
2023/08/24 01:03:59;;;;;;;7.03;3.78;;;20.30;99.90;;;;;;5073358;28;20229;-58
2023/08/24 01:06:25;;;;;;;6.28;3.50;;;20.20;99.90;;;;;;5073075;28;20225;-58
2023/08/24 01:08:54;;;;;;;6.75;3.60;;;20.30;99.90;;;;;;5073245;28;20211;-57
2023/08/24 01:11:30;;;;;;;4.57;4.10;;;20.30;99.90;;;;;;5073283;28;20231;-56
2023/08/24 01:14:05;;;;;;;4.43;3.65;;;20.30;99.90;;;;;;5073180;28;20200;-56
2023/08/24 01:16:36;;;;;;;8.40;3.83;;;20.30;99.90;;;;;;5072274;28;20224;-57
2023/08/24 01:19:06;;;;;;;5.97;3.90;;;20.30;99.90;;;;;;5073137;28;20208;-58
2023/08/24 01:21:33;;;;;;;5.97;3.88;;;20.40;99.90;;;;;;5073102;28;20669;-57
2023/08/24 01:24:11;;;;;;;4.47;3.55;;;20.40;99.90;;;;;;5072829;28;20699;-58
2023/08/24 01:26:40;;;;;;;5.15;3.63;;;20.40;99.90;;;;;;5072921;28;20235;-58
2023/08/24 01:29:08;;;;;;;7.03;4.10;;;20.40;99.90;;;;;;5073083;28;20209;-57
2023/08/24 01:31:34;;;;;;;8.15;4.10;;;20.40;99.90;;;;;;5072932;28;20212;-58
2023/08/24 01:34:01;;;;;;;4.07;3.50;;;20.50;99.90;;;;;;5072956;28;20204;-58
2023/08/24 01:36:28;;;;;;;4.25;3.33;;;20.50;99.90;;;;;;5072244;28;20719;-58
2023/08/24 01:39:06;;;;;;;6.30;3.67;;;20.50;99.90;;;;;;5072959;28;20212;-58
2023/08/24 01:41:38;;;;;;;7.00;3.42;;;20.50;99.90;;;;;;5072741;28;20224;-58
2023/08/24 01:44:09;;;;;;;4.35;3.20;;;20.50;99.90;;;;;;5072716;28;20225;-58
2023/08/24 01:46:37;;;;;;;3.80;2.97;;;20.50;99.90;;;;;;5072643;28;20237;-57
2023/08/24 01:49:04;;;;;;;4.22;3.00;;;20.50;99.90;;;;;;5072332;28;20208;-57
2023/08/24 01:51:32;;;;;;;4.78;3.85;;;20.50;99.90;;;;;;5072803;28;20322;-58
2023/08/24 01:53:59;;;;;;;6.82;3.80;;;20.40;99.90;;;;;;5072572;28;20201;-58
2023/08/24 01:56:26;;;;;;;6.95;4.00;;;20.40;99.90;;;;;;5072205;28;20319;-56
2023/08/24 01:58:52;;;;;;;5.03;3.70;;;20.40;99.90;;;;;;5072417;28;20580;-57
2023/08/24 02:01:20;;;;;;;7.30;3.67;;;20.20;99.90;;;;;;5072140;28;20557;-58
2023/08/24 02:03:47;;;;;;;6.78;3.78;;;20.30;99.90;;;;;;5072139;28;20229;-58
2023/08/24 02:06:14;;;;;;;6.38;3.90;;;20.40;99.90;;;;;;5071789;28;20240;-57
2023/08/24 02:08:40;;;;;;;6.43;3.85;;;20.50;99.90;;;;;;5072037;28;20570;-58
2023/08/24 02:11:08;;;;;;;5.03;3.80;;;20.40;99.90;;;;;;5072205;28;20208;-57
2023/08/24 02:13:35;;;;;;;5.55;3.63;;;20.40;99.90;;;;;;5072128;28;20687;-59
2023/08/24 02:16:03;;;;;;;5.28;3.83;;;20.50;99.90;;;;;;5071468;28;20661;-59
2023/08/24 02:18:31;;;;;;;5.07;3.63;;;20.60;99.90;;;;;;5071885;28;20212;-57
2023/08/24 02:20:57;;;;;;;6.18;4.20;;;20.60;99.90;;;;;;5072326;28;20216;-60
2023/08/24 02:23:24;;;;;;;4.63;3.72;;;20.50;99.90;;;;;;5071991;28;20595;-58
2023/08/24 02:25:51;;;;;;;6.05;3.90;;;20.60;99.90;;;;;;5071530;28;20626;-59
2023/08/24 02:28:17;;;;;;;7.05;3.78;;;20.60;99.90;;;;;;5072000;28;20219;-58
2023/08/24 02:30:44;;;;;;;4.55;4.15;;;20.60;99.90;;;;;;5071721;28;20213;-58
2023/08/24 02:33:11;;;;;;;7.07;4.22;;;20.60;99.90;;;;;;5072047;28;20208;-57
2023/08/24 02:35:39;;;;;;;6.43;4.55;;;20.60;99.90;;;;;;5071716;28;20659;-56
2023/08/24 02:38:06;;;;;;;4.15;3.65;;;20.60;99.90;;;;;;5071605;28;20255;-58
2023/08/24 02:40:33;;;;;;;7.22;4.43;;;20.50;99.90;;;;;;5071828;28;20208;-59
2023/08/24 02:42:59;;;;;;;11.70;4.70;;;20.50;99.90;;;;;;5071765;28;20250;-58
2023/08/24 02:45:26;;;;;;;5.53;3.90;;;20.60;99.90;;;;;;5071679;28;20322;-60
2023/08/24 02:47:53;;;;;;;5.85;4.38;;;20.60;99.90;;;;;;5071424;28;20259;-58
2023/08/24 02:50:19;;;;;;;4.28;3.85;;;20.60;99.90;;;;;;5071653;28;20205;-57
2023/08/24 02:52:47;;;;;;;4.50;3.60;;;20.60;99.90;;;;;;5071656;28;20699;-58
2023/08/24 02:55:15;;;;;;;6.53;3.60;;;20.60;99.90;;;;;;5071553;28;20231;-57
2023/08/24 02:57:41;;;;;;;4.43;3.58;;;20.60;99.90;;;;;;5071038;28;20229;-57
2023/08/24 03:00:09;;;;;;;5.20;3.95;;;20.50;99.90;;;;;;5071572;28;20208;-57
2023/08/24 03:02:36;;;;;;;4.13;3.50;;;20.50;99.90;;;;;;5071609;28;20227;-58
2023/08/24 03:05:03;;;;;;;4.63;4.00;;;20.50;99.90;;;;;;5071655;28;20208;-58
2023/08/24 03:07:29;;;;;;;5.47;4.07;;;20.50;99.90;;;;;;5070863;28;20231;-56
2023/08/24 03:09:57;;;;;;;5.82;4.10;;;20.40;99.90;;;;;;5071552;28;20209;-57
2023/08/24 03:12:24;;;;;;;6.10;4.05;;;20.40;99.90;;;;;;5071171;28;20209;-57
2023/08/24 03:14:52;;;;;;;4.90;4.38;;;20.50;99.90;;;;;;5071484;28;20213;-58
2023/08/24 03:17:19;;;;;;;6.40;4.15;;;20.50;99.90;;;;;;5071045;28;20229;-58
2023/08/24 03:19:46;;;;;;;4.57;4.03;;;20.50;99.90;;;;;;5071185;28;20205;-57
2023/08/24 03:22:13;;;;;;;5.22;3.67;;;20.60;99.90;;;;;;5071227;28;20208;-58
2023/08/24 03:24:39;;;;;;;6.35;3.92;;;20.50;99.90;;;;;;5071071;28;20559;-58
2023/08/24 03:27:07;;;;;;;8.32;3.78;;;20.40;99.90;;;;;;5071215;28;20233;-57
2023/08/24 03:29:34;;;;;;;4.90;4.03;;;20.40;99.90;;;;;;5071326;28;20232;-57
2023/08/24 03:32:01;;;;;;;8.43;4.30;;;20.30;99.90;;;;;;5071090;28;20201;-58
2023/08/24 03:34:29;;;;;;;5.15;4.25;;;20.20;99.90;;;;;;5071026;28;20201;-58
2023/08/24 03:36:56;;;;;;;5.63;4.20;;;20.20;99.90;;;;;;5070661;28;20491;-58
2023/08/24 03:39:22;;;;;;;4.68;4.15;;;20.10;99.90;;;;;;5073832;28;20211;-58
2023/08/24 03:41:49;;;;;;;4.63;3.90;;;20.10;99.90;;;;;;5075171;28;20228;-58
2023/08/24 03:44:17;;;;;;;4.78;3.97;;;20.10;99.90;;;;;;5075217;28;20221;-59
2023/08/24 03:46:44;;;;;;;6.18;3.85;;;20.00;99.90;;;;;;5074473;28;20831;-58
2023/08/24 03:49:11;;;;;;;7.70;3.90;;;19.80;99.90;;;;;;5074784;28;20621;-57
2023/08/24 03:51:37;;;;;;;6.18;4.00;;;19.70;99.90;;;;;;5074750;28;20211;-58
2023/08/24 03:54:05;;;;;;;6.43;4.25;;;19.70;99.90;;;;;;5074537;28;20201;-58
2023/08/24 03:56:32;;;;;;;5.82;3.95;;;19.80;99.90;;;;;;5074610;28;20263;-58
2023/08/24 03:58:58;;;;;;;6.20;3.83;;;19.70;99.90;;;;;;5074661;28;20211;-58
2023/08/24 04:01:26;;;;;;;4.32;3.90;;;19.70;99.90;;;;;;5074702;28;20205;-57
2023/08/24 04:03:52;;;;;;;5.65;3.75;;;19.60;99.90;;;;;;5074840;28;20224;-57
2023/08/24 04:06:20;;;;;;;7.93;5.00;;;19.70;99.90;;;;;;5074833;28;20225;-56
2023/08/24 04:08:46;;;;;;;5.05;4.03;;;19.80;99.90;;;;;;5074925;28;20669;-57
2023/08/24 04:11:13;;;;;;;7.97;3.95;;;19.80;99.90;;;;;;5074613;28;20231;-57
2023/08/24 04:13:40;;;;;;;7.53;3.80;;;19.90;99.90;;;;;;5074604;28;20197;-57
2023/08/24 04:16:07;;;;;;;4.47;3.85;;;20.00;99.90;;;;;;5074176;28;20232;-57
2023/08/24 04:18:35;;;;;;;7.70;4.10;;;20.10;99.90;;;;;;5074401;28;20216;-57
2023/08/24 04:21:01;;;;;;;9.13;4.00;;;20.10;99.90;;;;;;5074157;28;20201;-57
2023/08/24 04:23:29;;;;;;;6.88;4.18;;;20.20;99.90;;;;;;5074442;28;20220;-57
2023/08/24 04:25:55;;;;;;;5.53;3.33;;;20.30;99.90;;;;;;5074099;28;20205;-56
2023/08/24 04:28:23;;;;;;;5.78;3.50;;;20.30;99.90;;;;;;5074220;28;20212;-58
2023/08/24 04:30:53;;;;;;;7.20;4.10;;;20.40;99.90;;;;;;5074104;28;20211;-58
2023/08/24 04:33:20;;;;;;;8.00;3.90;;;20.60;99.90;;;;;;5074032;28;20676;-57
2023/08/24 04:35:49;;;;;;;5.93;3.83;;;20.70;99.90;;;;;;5073393;28;20695;-58
2023/08/24 04:38:15;;;;;;;9.38;3.95;;;20.80;99.90;;;;;;5074103;28;20492;-58
2023/08/24 04:40:50;;;;;;;5.13;4.35;;;20.80;99.90;;;;;;5073947;28;20205;-58
2023/08/24 04:43:17;;;;;;;5.82;3.83;;;20.90;99.90;;;;;;5073805;28;20248;-58
2023/08/24 04:45:47;;;;;;;6.35;3.67;;;21.00;99.90;;;;;;5073369;28;20213;-58
2023/08/24 04:48:14;;;;;;;6.45;3.80;;;21.00;99.90;;;;;;5073938;28;20296;-57
2023/08/24 04:50:44;;;;;;;6.65;3.70;;;21.10;99.90;;;;;;5073764;28;20209;-58
2023/08/24 04:53:14;;;;;;;5.22;3.60;;;21.10;99.90;;;;;;5073365;28;20213;-57
2023/08/24 04:55:40;;;;;;;6.40;3.35;;;21.20;99.90;;;;;;5073504;28;20208;-57
2023/08/24 04:58:08;;;;;;;4.35;3.47;;;21.30;99.90;;;;;;5073284;28;20657;-58
2023/08/24 05:00:35;;;;;;;7.38;4.13;;;21.40;99.90;;;;;;5073439;28;20293;-57
2023/08/24 05:03:01;;;;;;;5.13;3.33;;;21.50;99.90;;;;;;5073585;28;20314;-58
2023/08/24 05:05:29;;;;;;;3.92;3.50;;;21.60;99.90;;;;;;5073586;28;20216;-58
2023/08/24 05:07:56;;;;;;;4.90;3.53;;;21.70;99.90;;;;;;5073177;28;20228;-58
2023/08/24 05:10:25;;;;;;;5.07;3.95;;;21.80;99.90;;;;;;5073336;28;20582;-56
2023/08/24 05:12:52;;;;;;;7.55;3.92;;;21.90;99.90;;;;;;5073248;28;20315;-58
2023/08/24 05:15:19;;;;;;;6.82;3.60;;;21.90;99.90;;;;;;5072961;28;20200;-56
2023/08/24 05:17:45;;;;;;;6.22;3.60;;;21.80;99.90;;;;;;5073077;28;20712;-58
2023/08/24 05:20:12;;;;;;;6.35;3.55;;;21.80;99.90;;;;;;5072948;28;20703;-58
2023/08/24 05:22:39;;;;;;;4.35;3.10;;;22.10;99.90;;;;;;5073245;28;20204;-58
2023/08/24 05:25:07;;;;;;;6.85;3.55;;;22.20;99.90;;;;;;5072963;28;20232;-58
2023/08/24 05:27:35;;;;;;;8.00;4.18;;;22.20;99.90;;;;;;5073061;28;20227;-61
2023/08/24 05:30:01;;;;;;;11.50;3.53;;;22.20;99.90;;;;;;5078064;28;20208;-61
2023/08/24 05:32:28;;;;;;;4.10;3.60;;;22.50;99.90;;;;;;5075554;28;20205;-59
2023/08/24 05:34:55;;;;;;;6.93;3.80;;;22.50;99.90;;;;;;5073699;28;20205;-59
2023/08/24 05:37:21;;;;;;;5.18;3.45;;;22.40;99.90;;;;;;5073767;28;20229;-59
2023/08/24 05:39:48;;;;;;;6.03;3.72;;;22.40;99.90;;;;;;5073690;28;20215;-60
2023/08/24 05:42:15;;;;;;;8.13;5.78;;;22.60;99.90;;;;;;5074280;28;20260;-59
2023/08/24 05:44:43;;;;;;;9.93;7.78;;;22.60;99.90;;;;;;5074891;28;20581;-57
2023/08/24 05:47:09;;;;;;;14.73;8.43;;;22.90;99.90;;;;;;5074858;28;20232;-57
2023/08/24 05:49:36;;;;;;;11.57;7.00;;;23.50;99.90;;;;;;5073711;28;20208;-59
2023/08/24 05:52:03;;;;;;;8.02;6.25;;;23.90;99.90;;;;;;5073691;28;20665;-58
2023/08/24 05:54:30;;;;;;;6.70;4.68;;;24.20;99.90;;;;;;5072567;28;20201;-58
2023/08/24 05:57:00;;;;;;;7.13;5.60;;;24.80;99.90;;;;;;5072062;28;20220;-58
2023/08/24 05:59:27;;;;;;;13.10;5.80;;;25.40;99.90;;;;;;5072569;28;20304;-58
2023/08/24 06:01:55;;;;;;;5.47;4.57;;;26.00;99.90;;;;;;5071496;28;20672;-58
2023/08/24 06:04:21;;;;;;;5.43;3.63;;;26.50;99.90;;;;;;5072324;28;20356;-58
2023/08/24 06:06:48;;;;;;;5.43;3.50;;;26.60;99.90;;;;;;5072603;28;20221;-56
2023/08/24 06:09:15;;;;;;;5.68;3.00;;;26.40;99.90;;;;;;5072764;28;20205;-58
2023/08/24 06:11:42;;;;;;;5.72;3.17;;;26.20;99.90;;;;;;5072949;28;20237;-58
2023/08/24 06:14:08;;;;;;;5.50;3.05;;;26.00;99.90;;;;;;5072423;28;20220;-56
2023/08/24 06:16:35;;;;;;;7.85;3.10;;;25.80;99.90;;;;;;5072926;28;20225;-57
2023/08/24 06:19:03;;;;;;;5.60;3.00;;;25.60;99.90;;;;;;5072411;28;20298;-58
2023/08/24 06:21:30;;;;;;;4.50;3.03;;;25.50;99.90;;;;;;5072713;28;20236;-58
2023/08/24 06:23:56;;;;;;;4.10;3.28;;;25.50;99.90;;;;;;5072438;28;20272;-58
2023/08/24 06:26:23;;;;;;;4.78;3.13;;;25.60;99.90;;;;;;5072231;28;20229;-58
2023/08/24 06:28:50;;;;;;;4.53;2.95;;;25.80;99.90;;;;;;5072323;28;20208;-60
2023/08/24 06:31:17;;;;;;;5.88;2.95;;;26.30;99.90;;;;;;5071962;28;20208;-58
2023/08/24 06:33:43;;;;;;;5.68;2.78;;;27.20;99.90;;;;;;5071601;28;20553;-57
2023/08/24 06:36:12;;;;;;;7.55;2.80;;;28.30;99.90;;;;;;5071238;28;20224;-58
2023/08/24 06:38:39;;;;;;;4.43;2.38;;;29.00;99.90;;;;;;5071440;28;20703;-58
2023/08/24 06:41:05;;;;;;;3.80;3.10;;;28.90;99.90;;;;;;5071540;28;20209;-57
2023/08/24 06:43:32;;;;;;;5.13;3.58;;;28.70;99.90;;;;;;5071424;28;20209;-58
2023/08/24 06:45:59;;;;;;;7.45;2.85;;;28.30;99.90;;;;;;5071022;28;20676;-58
2023/08/24 06:48:25;;;;;;;3.35;3.00;;;27.60;99.90;;;;;;5071838;28;20240;-58
2023/08/24 06:50:52;;;;;;;4.72;2.88;;;26.90;99.90;;;;;;5071651;28;20637;-58
2023/08/24 06:53:20;;;;;;;4.95;3.20;;;26.30;99.90;;;;;;5071615;28;20220;-59
2023/08/24 06:55:47;;;;;;;5.68;2.70;;;25.80;99.90;;;;;;5073837;28;20668;-59
2023/08/24 06:58:14;;;;;;;9.10;2.92;;;25.40;99.90;;;;;;5072575;28;20217;-60
2023/08/24 07:00:40;;;;;;;6.05;3.03;;;25.30;99.90;;;;;;5072043;28;20213;-59
2023/08/24 07:03:07;;;;;;;6.57;3.50;;;25.30;99.90;;;;;;5072150;28;20209;-59
2023/08/24 07:05:34;;;;;;;5.40;3.40;;;25.20;99.90;;;;;;5073258;28;20225;-58
2023/08/24 07:08:03;;;;;;;9.32;3.25;;;25.00;99.90;;;;;;5072788;28;20666;-58
2023/08/24 07:10:30;;;;;;;7.50;3.50;;;25.10;99.90;;;;;;5072303;28;20209;-59
2023/08/24 07:12:57;;;;;;;6.47;3.65;;;25.10;99.90;;;;;;5070748;28;20209;-58
2023/08/24 07:15:24;;;;;;;4.07;3.40;;;25.20;99.90;;;;;;5071445;28;20201;-60
2023/08/24 07:17:51;;;;;;;9.30;3.47;;;25.40;99.90;;;;;;5076799;28;20229;-62
2023/08/24 07:20:17;;;;;;;6.13;3.50;;;25.50;99.90;;;;;;5071147;28;20205;-62
2023/08/24 07:22:44;;;;;;;7.47;3.05;;;25.60;99.90;;;;;;5071674;28;20212;-60
2023/08/24 07:25:12;;;;;;;7.90;3.55;;;25.80;99.90;;;;;;5071418;28;20323;-61
2023/08/24 07:27:40;;;;;;;7.57;3.60;;;26.20;99.90;;;;;;5070906;28;20232;-59
2023/08/24 07:30:09;;;;;;;5.57;3.17;;;27.20;99.90;;;;;;5071083;28;20205;-60
2023/08/24 07:32:36;;;;;;;7.28;2.80;;;29.00;99.90;;;;;;5071057;28;20292;-60
2023/08/24 07:35:03;;;;;;;8.80;3.38;;;30.90;99.90;;;;;;5070836;28;20208;-60
2023/08/24 07:37:29;;;;;;;5.00;3.08;;;32.00;99.90;;;;;;5070550;28;20270;-60
2023/08/24 07:39:56;;;;;;;3.42;2.88;;;31.90;99.90;;;;;;5070663;28;20815;-61
2023/08/24 07:42:23;;;;;;;4.82;3.03;;;31.40;99.90;;;;;;5070893;28;20208;-61
2023/08/24 07:44:51;;;;;;;8.23;3.42;;;30.70;99.90;;;;;;5070868;28;20700;-61
2023/08/24 07:47:18;;;;;;;7.15;3.40;;;30.20;99.90;;;;;;5083924;22;20229;-66
2023/08/24 07:49:45;;;;;;;11.00;2.80;;;29.90;99.90;;;;;;5051118;28;20205;-66
2023/08/24 07:52:12;;;;;;;6.85;3.30;;;29.90;99.90;;;;;;5051334;28;20237;-66
2023/08/24 07:54:39;;;;;;;8.07;3.08;;;29.80;99.90;;;;;;5051097;28;20201;-66
2023/08/24 07:57:06;;;;;;;11.40;3.33;;;29.70;99.90;;;;;;5050387;28;20236;-66
2023/08/24 07:59:33;;;;;;;5.22;3.20;;;29.60;99.90;;;;;;5051158;28;20206;-66
2023/08/24 08:02:01;;;;;;;3.60;3.10;;;29.80;99.90;;;;;;5050551;28;20641;-66
2023/08/24 08:04:27;;;;;;;4.97;2.80;;;30.20;99.90;;;;;;5050760;28;20229;-66
2023/08/24 08:06:55;;;;;;;8.85;3.03;;;31.00;99.90;;;;;;5050774;28;20237;-66
2023/08/24 08:09:22;;;;;;;11.45;3.20;;;31.10;99.90;;;;;;5051076;28;20644;-67
2023/08/24 08:11:49;;;;;;;7.22;3.28;;;31.20;99.90;;;;;;5050752;28;20210;-67
2023/08/24 08:14:15;;;;;;;6.60;3.92;;;32.30;99.90;;;;;;5050974;28;20269;-68
2023/08/24 08:16:42;;;;;;;8.63;3.90;;;33.60;98.90;;;;;;5050552;28;20693;-66
2023/08/24 08:19:10;;;;;;;5.32;3.72;;;34.30;96.90;;;;;;5051383;28;20221;-63
2023/08/24 08:21:37;;;;;;;6.05;3.03;;;35.00;95.40;;;;;;5050495;28;20209;-63
2023/08/24 08:24:04;;;;;;;4.85;2.95;;;35.50;94.20;;;;;;5051051;28;20228;-62
2023/08/24 08:26:30;;;;;;;7.10;2.92;;;35.30;93.80;;;;;;5053631;28;20225;-62
2023/08/24 08:28:57;;;;;;;8.15;2.60;;;34.90;93.20;;;;;;5053789;28;20205;-63
2023/08/24 08:31:24;;;;;;;5.97;2.88;;;34.50;93.50;;;;;;5054108;28;20210;-62
2023/08/24 08:33:51;;;;;;;5.22;2.90;;;33.60;94.50;;;;;;5053954;28;20205;-63
2023/08/24 08:36:19;;;;;;;6.05;3.10;;;33.10;95.30;;;;;;5053502;28;20229;-63
2023/08/24 08:38:46;;;;;;;4.13;2.95;;;32.80;95.90;;;;;;5053404;28;20205;-62
2023/08/24 08:41:13;;;;;;;5.15;2.67;;;32.70;95.90;;;;;;5053541;28;20220;-62
2023/08/24 08:43:40;;;;;;;6.90;3.00;;;32.40;95.90;;;;;;5053279;28;20872;-63
2023/08/24 08:46:07;;;;;;;6.70;3.13;;;32.00;96.80;;;;;;5053135;28;20268;-62
2023/08/24 08:48:35;;;;;;;5.95;3.40;;;31.40;97.90;;;;;;5053411;28;20205;-63
2023/08/24 08:51:02;;;;;;;9.45;3.03;;;31.20;98.20;;;;;;5053548;28;20561;-63
2023/08/24 08:53:30;;;;;;;8.32;3.17;;;31.00;98.70;;;;;;5053348;28;20768;-63
2023/08/24 08:56:03;;;;;;;6.25;3.00;;;30.70;99.10;;;;;;5053270;28;20210;-67
2023/08/24 08:58:32;;;;;;;7.72;2.80;;;30.40;99.90;;;;;;5053328;28;20205;-68
2023/08/24 09:00:59;;;;;;;8.07;3.25;;;30.10;99.90;;;;;;5032869;28;20670;-64
2023/08/24 09:03:29;;;;;;;8.30;3.40;;;30.10;99.90;;;;;;5032571;28;20213;-63
2023/08/24 09:05:57;;;;;;;7.50;3.17;;;30.00;99.90;;;;;;5032391;28;20236;-64
2023/08/24 09:08:24;;;;;;;5.03;3.22;;;30.00;99.90;;;;;;5032740;28;20230;-63
2023/08/24 09:10:53;;;;;;;8.18;3.42;;;30.00;99.90;;;;;;5032434;28;20218;-63
2023/08/24 09:13:19;;;;;;;5.20;3.25;;;29.90;99.90;;;;;;5032637;28;20211;-64
2023/08/24 09:15:46;;;;;;;4.60;3.10;;;29.80;99.90;;;;;;5032928;28;20216;-63
2023/08/24 09:18:13;;;;;;;6.13;3.00;;;29.70;99.90;;;;;;5032488;28;20222;-63
2023/08/24 09:20:39;;;;;;;5.28;3.00;;;29.70;99.90;;;;;;5032809;28;20213;-66
2023/08/24 09:23:19;;;;;;;9.10;3.05;;;29.70;99.90;;;;;;5032276;28;20297;-64
2023/08/24 09:25:47;;;;;;;5.28;3.35;;;29.80;99.90;;;;;;5032856;28;20226;-65
2023/08/24 09:28:23;;;;;;;3.47;3.05;;;29.70;99.90;;;;;;5032612;28;20226;-66
2023/08/24 09:30:53;;;;;;;6.35;3.45;;;29.60;99.90;;;;;;5032656;28;20228;-63
2023/08/24 09:33:21;;;;;;;5.22;3.50;;;29.60;99.90;;;;;;5032997;28;20581;-68
2023/08/24 09:35:53;;;;;;;5.72;2.92;;;29.60;99.90;;;;;;5032844;28;20206;-64
2023/08/24 09:38:22;;;;;;;5.90;3.08;;;29.70;99.90;;;;;;5032685;28;20226;-64
2023/08/24 09:40:52;;;;;;;4.53;3.33;;;29.80;99.90;;;;;;5032187;28;20206;-62
2023/08/24 09:43:20;;;;;;;5.65;3.33;;;29.90;99.90;;;;;;5032340;28;20213;-62
2023/08/24 09:45:50;;;;;;;3.70;2.80;;;30.00;99.90;;;;;;5031378;28;20237;-62
2023/08/24 09:48:17;;;;;;;4.53;3.53;;;30.00;99.90;;;;;;5032104;28;20320;-63
2023/08/24 09:50:46;;;;;;;8.02;3.17;;;30.20;99.90;;;;;;5032040;28;20662;-62
2023/08/24 09:53:18;;;;;;;8.48;3.58;;;30.30;99.90;;;;;;5032279;28;20256;-62
2023/08/24 09:55:49;;;;;;;6.63;3.40;;;30.40;99.90;;;;;;5032031;28;20234;-62
2023/08/24 09:58:16;;;;;;;7.07;3.63;;;30.50;99.90;;;;;;5031932;28;20316;-62
2023/08/24 10:00:47;;;;;;;6.05;3.35;;;30.70;99.90;;;;;;5031467;28;20276;-62
2023/08/24 10:03:18;;;;;;;4.57;3.40;;;30.70;99.90;;;;;;5031675;28;20260;-62
2023/08/24 10:05:46;;;;;;;6.75;3.20;;;30.80;99.90;;;;;;5031618;28;20232;-63
2023/08/24 10:08:15;;;;;;;4.20;3.20;;;30.90;99.90;;;;;;5031526;28;20233;-63
2023/08/24 10:10:43;;;;;;;3.88;3.25;;;31.00;99.90;;;;;;5030963;28;20206;-63
2023/08/24 10:13:15;;;;;;;4.38;3.22;;;31.10;99.90;;;;;;5031058;28;20206;-62
2023/08/24 10:15:46;;;;;;;8.23;3.88;;;31.20;99.90;;;;;;5031155;28;20202;-62
2023/08/24 10:18:13;;;;;;;7.65;3.42;;;31.30;99.90;;;;;;5031154;28;20810;-62
2023/08/24 10:20:41;;;;;;;4.97;3.40;;;31.50;99.90;;;;;;5031307;28;20206;-63
2023/08/24 10:23:09;;;;;;;4.10;3.30;;;31.60;99.90;;;;;;5030739;28;20207;-63
2023/08/24 10:25:37;;;;;;;4.82;3.40;;;31.70;99.90;;;;;;5030714;28;20539;-63
2023/08/24 10:28:05;;;;;;;6.55;3.67;;;31.70;99.90;;;;;;5030762;28;20232;-63
2023/08/24 10:30:32;;;;;;;5.53;3.40;;;31.70;99.90;;;;;;5030849;28;20682;-63
2023/08/24 10:33:01;;;;;;;4.95;3.38;;;31.80;99.90;;;;;;5030601;28;20599;-64
2023/08/24 10:35:28;;;;;;;8.38;3.63;;;32.00;99.90;;;;;;5030150;28;20573;-64
2023/08/24 10:37:58;;;;;;;5.38;3.42;;;32.10;99.90;;;;;;5030027;28;20233;-63
2023/08/24 10:40:35;;;;;;;8.15;3.33;;;32.10;99.90;;;;;;5030482;28;20213;-61
2023/08/24 10:43:05;;;;;;;4.45;3.50;;;32.20;99.90;;;;;;5030620;28;20201;-62
2023/08/24 10:45:56;;;;;;;5.93;3.55;;;32.40;99.90;;;;;;5030156;28;20253;-62
2023/08/24 10:48:25;;;;;;;8.45;3.47;;;32.60;99.90;;;;;;5029691;28;20321;-62
2023/08/24 10:51:19;;;;;;;6.00;3.80;;;32.90;99.90;;;;;;5030333;28;20628;-62
2023/08/24 10:53:47;;;;;;;6.38;3.50;;;33.10;99.90;;;;;;5030549;28;20210;-63
2023/08/24 10:56:15;;;;;;;4.32;3.25;;;33.20;99.80;;;;;;5030178;28;20217;-63
2023/08/24 10:58:42;;;;;;;8.90;4.28;;;33.30;99.90;;;;;;5030631;28;20270;-63
2023/08/24 11:01:14;;;;;;;7.30;3.70;;;33.30;99.90;;;;;;5029820;28;20362;-64
2023/08/24 11:03:46;;;;;;;4.47;3.20;;;33.30;99.80;;;;;;5030060;28;20674;-63
2023/08/24 11:06:20;;;;;;;8.02;3.97;;;33.20;99.90;;;;;;5030222;28;20217;-63
2023/08/24 11:08:48;;;;;;;5.75;3.58;;;33.20;99.90;;;;;;5030244;28;20209;-63
2023/08/24 11:11:22;;;;;;;7.05;3.50;;;33.10;99.90;;;;;;5029835;28;20206;-64
2023/08/24 11:14:19;;;;;;;8.60;3.45;;;33.20;99.80;;;;;;5030311;28;20550;-63
2023/08/24 11:16:47;;;;;;;4.15;3.25;;;33.30;99.70;;;;;;5029791;28;20222;-63
2023/08/24 11:19:16;;;;;;;5.22;3.53;;;33.40;99.30;;;;;;5030591;28;20202;-63
2023/08/24 11:21:44;;;;;;;8.27;3.70;;;33.40;99.10;;;;;;5029923;28;20208;-64
2023/08/24 11:24:13;;;;;;;6.22;3.97;;;33.50;99.00;;;;;;5030033;28;20591;-62
2023/08/24 11:26:42;;;;;;;5.40;3.45;;;33.50;98.60;;;;;;5029474;28;20240;-63
2023/08/24 11:29:09;;;;;;;4.85;3.42;;;33.50;98.70;;;;;;5030344;28;20206;-63
2023/08/24 11:31:37;;;;;;;4.22;3.05;;;33.50;98.40;;;;;;5029857;28;20210;-63
2023/08/24 11:34:04;;;;;;;5.10;3.40;;;33.50;98.40;;;;;;5029701;28;20212;-63
2023/08/24 11:36:32;;;;;;;6.43;3.42;;;33.30;98.60;;;;;;5029380;28;20226;-64
2023/08/24 11:39:00;;;;;;;7.05;3.55;;;33.40;98.60;;;;;;5030418;28;20301;-63
2023/08/24 11:41:27;;;;;;;5.72;3.65;;;33.50;98.30;;;;;;5029912;28;20214;-63
2023/08/24 11:44:01;;;;;;;5.10;3.17;;;33.40;98.30;;;;;;5030007;28;20228;-63
2023/08/24 11:46:30;;;;;;;6.70;3.55;;;33.30;98.20;;;;;;5029273;28;20317;-63
2023/08/24 11:48:58;;;;;;;7.95;3.63;;;33.40;98.20;;;;;;5029336;28;20294;-63
2023/08/24 11:51:25;;;;;;;7.43;3.50;;;33.40;98.30;;;;;;5030172;28;20238;-64
2023/08/24 11:53:53;;;;;;;5.18;3.42;;;33.40;98.20;;;;;;5030372;28;20268;-64
2023/08/24 11:56:20;;;;;;;6.65;4.03;;;33.40;98.30;;;;;;5029678;28;20560;-64
2023/08/24 11:58:50;;;;;;;7.90;3.80;;;33.50;98.60;;;;;;5029938;28;20654;-64
2023/08/24 12:01:17;;;;;;;6.55;3.45;;;33.70;97.90;;;;;;5033297;28;20210;-64
2023/08/24 12:03:44;;;;;;;7.07;3.95;;;33.70;97.80;;;;;;5033768;28;20674;-64
2023/08/24 12:06:12;;;;;;;5.63;3.45;;;33.80;97.90;;;;;;5034310;28;20229;-64
2023/08/24 12:08:40;;;;;;;7.80;3.45;;;33.90;97.50;;;;;;5033736;28;20237;-64
2023/08/24 12:11:16;;;;;;;4.90;3.53;;;34.10;97.40;;;;;;5033387;28;20225;-64
2023/08/24 12:13:47;;;;;;;6.18;3.53;;;34.20;96.90;;;;;;5033283;28;20697;-64
2023/08/24 12:16:16;;;;;;;5.28;3.63;;;34.30;97.10;;;;;;5033013;28;20207;-62
2023/08/24 12:18:51;;;;;;;7.78;3.80;;;34.20;96.90;;;;;;5033316;28;20207;-63
2023/08/24 12:21:19;;;;;;;3.72;3.20;;;34.10;97.00;;;;;;5033143;28;20210;-64
2023/08/24 12:23:55;;;;;;;4.63;3.47;;;34.20;96.80;;;;;;5033331;28;20301;-67
2023/08/24 12:26:23;;;;;;;6.20;3.80;;;34.30;96.80;;;;;;5033048;28;20237;-66
2023/08/24 12:28:51;;;;;;;6.63;3.72;;;34.40;96.80;;;;;;5033350;28;20582;-67
2023/08/24 12:31:19;;;;;;;6.72;3.92;;;34.50;96.50;;;;;;5033447;28;20210;-63
2023/08/24 12:33:46;;;;;;;7.05;3.40;;;34.80;96.10;;;;;;5033577;28;20273;-63
2023/08/24 12:36:13;;;;;;;9.77;3.92;;;34.90;95.90;;;;;;5033140;28;20241;-63
2023/08/24 12:38:41;;;;;;;5.35;3.33;;;35.00;95.70;;;;;;5033422;28;20234;-63
2023/08/24 12:41:08;;;;;;;8.80;3.90;;;35.00;95.30;;;;;;5033061;28;20252;-63
2023/08/24 12:43:36;;;;;;;8.98;4.43;;;35.10;95.50;;;;;;5033363;28;20206;-62
2023/08/24 12:46:03;;;;;;;7.65;4.10;;;35.10;95.00;;;;;;5032887;28;20222;-64
2023/08/24 12:48:29;;;;;;;5.40;3.42;;;35.20;95.00;;;;;;5033022;28;20228;-62